Aérodrome :
LOGIN :

S'inscrire | Disclaimer

   EN    FR    IT 

 










Légende :    VFR   VFR Marginal   IFR   IFR Intensif   IFR Très Intensif
Visi : 
Plafond : 
>= 8 km
>= 3000ft
5 à 8 km
1000 à 3000 ft
1500m à 5 km
500 à 1000 ft
800 à 1500m
200 à 500 ft
< 800m
< 200 ft
Symboles :   Orages  Brouillard  Fortes neiges  Fortes précipitations  Vent > 20 kt
SIGMETs :   Divers  Orages  Givrage  Turbulence  Onde Orograph.  Cendres Volcan.






- Altitude de l'aérodrome : 529 ft
- Code IATA : CHR


LFLX - Chateauroux

DERNIER METAR :
  • 061900Z AUTO 04009KT 9999 BKN029 04/00 Q1034 NOSIG

METARs EXPIRÉS :
  • 061830Z AUTO 04010KT 9999 FEW032 04/01 Q1034 NOSIG
  • 061800Z AUTO 04012KT 9999 SCT033 05/01 Q1034 NOSIG
  • 061730Z AUTO 03011KT 9999 FEW033 05/01 Q1034 NOSIG
  • 061700Z AUTO 04012KT CAVOK 06/01 Q1034 NOSIG
  • 061630Z AUTO 03012KT CAVOK 07/01 Q1033 NOSIG

TAF TAF LFLX
Valide du 06 à 18h jusqu'au 08 à 00h UTC


061700Z 0618/0724 05010KT CAVOK
PROB30
TEMPO 0706/0709 BKN008



MET'MAP, la Météo Aéronautique d'un coup d'oeil ! - Copyright ORBIFLY Décembre 2007 - Disclaimer

ORBIFLY MET'MAP TEAM :

Programmation & Développement : Alexandra Zaïnal
Sur une idée originale de : Baudouin d'Aumeries
Soutien technique & logistique : Manuel Goepfert
Assistance : Marc-Olivier Méhu




SOURCES & CREDITS :

   NOAA